createdAt,value
2023-01-28T00:01:45.500Z,17.83
2023-01-28T00:04:13.476Z,17.27
2023-01-28T00:06:41.429Z,16.50
2023-01-28T00:09:09.443Z,17.53
2023-01-28T00:11:37.625Z,16.40
2023-01-28T00:14:05.722Z,17.40
2023-01-28T00:16:33.841Z,17.23
2023-01-28T00:19:03.205Z,16.33
2023-01-28T00:21:31.334Z,17.93
2023-01-28T00:23:59.357Z,15.97
2023-01-28T00:26:34.774Z,15.83
2023-01-28T00:29:02.982Z,17.60
2023-01-28T00:31:31.234Z,17.50
2023-01-28T00:33:59.370Z,17.77
2023-01-28T00:36:28.939Z,18.43
2023-01-28T00:38:59.463Z,17.80
2023-01-28T00:41:28.692Z,17.60
2023-01-28T00:43:56.917Z,17.00
2023-01-28T00:46:26.453Z,17.40
2023-01-28T00:48:54.728Z,18.07
2023-01-28T00:51:23.153Z,16.83
2023-01-28T00:53:52.969Z,16.70
2023-01-28T00:56:21.235Z,17.97
2023-01-28T00:58:49.250Z,18.70
2023-01-28T01:01:18.932Z,17.53
2023-01-28T01:03:57.352Z,18.43
2023-01-28T01:06:26.287Z,16.57
2023-01-28T01:08:55.677Z,18.60
2023-01-28T01:11:24.805Z,17.50
2023-01-28T01:13:54.891Z,17.73
2023-01-28T01:16:24.194Z,18.13
2023-01-28T01:18:53.057Z,17.33
2023-01-28T01:21:26.925Z,17.73
2023-01-28T01:23:56.439Z,18.87
2023-01-28T01:26:25.232Z,17.47
2023-01-28T01:28:53.399Z,18.10
2023-01-28T01:31:23.151Z,18.03
2023-01-28T01:33:52.375Z,17.20
2023-01-28T01:36:21.864Z,18.73
2023-01-28T01:38:54.538Z,18.83
2023-01-28T01:41:28.400Z,17.53
2023-01-28T01:43:57.941Z,19.33
2023-01-28T01:46:42.187Z,19.60
2023-01-28T01:49:16.960Z,18.90
2023-01-28T01:51:47.707Z,18.83
2023-01-28T01:54:17.514Z,18.40
2023-01-28T01:56:50.757Z,18.73
2023-01-28T01:59:23.592Z,19.37
2023-01-28T02:01:51.659Z,19.10
2023-01-28T02:04:23.672Z,20.33
2023-01-28T02:06:51.815Z,19.23
2023-01-28T02:09:27.280Z,17.70
2023-01-28T02:12:02.346Z,18.10
2023-01-28T02:14:33.602Z,18.70
2023-01-28T02:17:02.975Z,18.77
2023-01-28T02:19:37.703Z,18.30
2023-01-28T02:22:22.302Z,18.73
2023-01-28T02:25:23.637Z,18.33
2023-01-28T02:28:09.355Z,17.87
2023-01-28T02:30:42.713Z,19.47
2023-01-28T02:33:18.027Z,19.47
2023-01-28T02:35:50.797Z,18.07
2023-01-28T02:38:23.837Z,18.73
2023-01-28T02:41:05.770Z,18.97
2023-01-28T02:43:37.104Z,18.13
2023-01-28T02:46:34.520Z,18.57
2023-01-28T02:49:03.440Z,19.30
2023-01-28T02:51:41.999Z,18.73
2023-01-28T02:54:15.830Z,18.20
2023-01-28T02:56:48.700Z,18.73
2023-01-28T02:59:35.509Z,18.97
2023-01-28T03:02:12.795Z,17.70
2023-01-28T03:04:46.464Z,20.33
2023-01-28T03:07:17.350Z,17.97
2023-01-28T03:09:46.926Z,19.30
2023-01-28T03:12:38.380Z,18.37
2023-01-28T03:15:29.413Z,17.90
2023-01-28T03:18:20.765Z,17.70
2023-01-28T03:21:13.086Z,18.87
2023-01-28T03:24:06.187Z,18.20
2023-01-28T03:26:57.179Z,18.73
2023-01-28T03:29:44.273Z,18.53
2023-01-28T03:32:31.523Z,17.93
2023-01-28T03:35:17.324Z,19.67
2023-01-28T03:37:45.593Z,18.83
2023-01-28T03:40:14.753Z,18.17
2023-01-28T03:42:42.765Z,17.70
2023-01-28T03:45:11.681Z,18.27
2023-01-28T03:47:41.092Z,18.13
2023-01-28T03:50:10.394Z,18.07
2023-01-28T03:52:38.645Z,18.33
2023-01-28T03:55:13.998Z,17.53
2023-01-28T03:57:44.690Z,18.23
2023-01-28T04:00:14.261Z,18.60
2023-01-28T04:02:43.666Z,17.80
2023-01-28T04:05:15.993Z,17.03
2023-01-28T04:07:44.309Z,18.87
2023-01-28T04:10:13.308Z,18.70
2023-01-28T04:12:41.296Z,17.83
2023-01-28T04:15:15.693Z,17.80
2023-01-28T04:17:49.015Z,16.60
2023-01-28T04:20:19.052Z,16.73
2023-01-28T04:22:47.041Z,17.80
2023-01-28T04:25:15.438Z,16.47
2023-01-28T04:27:43.645Z,16.73
2023-01-28T04:30:12.602Z,16.80
2023-01-28T04:32:40.591Z,16.57
2023-01-28T04:35:10.925Z,16.37
2023-01-28T04:37:38.924Z,17.00
2023-01-28T04:40:08.184Z,16.33
2023-01-28T04:42:36.181Z,16.47
2023-01-28T04:45:04.433Z,16.77
2023-01-28T04:47:32.459Z,16.07
2023-01-28T04:50:00.450Z,16.47
2023-01-28T04:52:29.786Z,16.43
2023-01-28T04:54:57.759Z,15.43
2023-01-28T04:57:25.861Z,16.03
2023-01-28T04:59:53.842Z,15.80
2023-01-28T05:02:21.976Z,16.23
2023-01-28T05:04:49.968Z,14.60
2023-01-28T05:07:18.006Z,15.43
2023-01-28T05:09:47.354Z,15.97
2023-01-28T05:12:15.322Z,15.00
2023-01-28T05:14:43.260Z,14.57
2023-01-28T05:17:11.297Z,15.27
2023-01-28T05:19:39.245Z,14.63
2023-01-28T05:22:07.217Z,14.93
2023-01-28T05:24:35.523Z,14.50
2023-01-28T05:27:05.103Z,14.87
2023-01-28T05:29:33.110Z,14.93
2023-01-28T05:32:01.077Z,14.63
2023-01-28T05:34:29.052Z,14.20
2023-01-28T05:36:57.030Z,14.20
2023-01-28T05:39:25.255Z,14.20
2023-01-28T05:41:53.228Z,13.80
2023-01-28T05:44:22.591Z,14.33
2023-01-28T05:46:50.549Z,14.83
2023-01-28T05:49:18.541Z,13.50
2023-01-28T05:51:48.310Z,13.93
2023-01-28T05:54:16.313Z,13.53
2023-01-28T05:56:44.383Z,13.40
2023-01-28T05:59:13.455Z,12.83
2023-01-28T06:01:42.968Z,14.33
2023-01-28T06:04:11.214Z,13.87
2023-01-28T06:06:39.200Z,14.20
2023-01-28T06:09:07.242Z,14.27
2023-01-28T06:11:35.279Z,13.70
2023-01-28T06:14:03.290Z,13.87
2023-01-28T06:16:31.307Z,14.33
2023-01-28T06:19:01.034Z,14.30
2023-01-28T06:21:30.197Z,13.70
2023-01-28T06:23:58.407Z,13.80
2023-01-28T06:26:26.461Z,14.33
2023-01-28T06:28:54.486Z,13.40
2023-01-28T06:31:22.558Z,13.63
2023-01-28T06:33:50.539Z,13.80
2023-01-28T06:36:19.906Z,13.57
2023-01-28T06:38:47.914Z,13.77
2023-01-28T06:41:15.885Z,13.37
2023-01-28T06:43:43.851Z,15.30
2023-01-28T06:46:11.987Z,17.77
2023-01-28T06:48:40.010Z,17.23
2023-01-28T06:51:08.299Z,16.20
2023-01-28T06:53:37.653Z,15.63
2023-01-28T06:56:06.864Z,15.93
2023-01-28T06:58:34.957Z,14.50
2023-01-28T07:01:03.760Z,14.43
2023-01-28T07:03:31.781Z,13.87
2023-01-28T07:06:02.106Z,14.17
2023-01-28T07:08:30.057Z,12.47
2023-01-28T07:10:59.385Z,13.20
2023-01-28T07:13:28.594Z,12.97
2023-01-28T07:15:56.765Z,12.67
2023-01-28T07:18:24.782Z,11.40
2023-01-28T07:20:52.788Z,11.43
2023-01-28T07:23:22.848Z,12.83
2023-01-28T07:25:50.840Z,13.13
2023-01-28T07:28:23.585Z,14.17
2023-01-28T07:30:53.723Z,15.13
2023-01-28T07:33:24.188Z,14.73
2023-01-28T07:35:52.459Z,13.00
2023-01-28T07:38:20.439Z,11.73
2023-01-28T07:40:48.602Z,11.80
2023-01-28T07:43:16.586Z,12.50
2023-01-28T07:45:48.700Z,12.07
2023-01-28T07:48:16.836Z,11.90
2023-01-28T07:50:45.474Z,11.53
2023-01-28T07:53:13.747Z,11.03
2023-01-28T07:55:42.037Z,11.70
2023-01-28T07:58:12.496Z,10.63
2023-01-28T08:00:40.759Z,11.00
2023-01-28T08:03:15.715Z,10.73
2023-01-28T08:05:46.116Z,11.53
2023-01-28T08:08:14.342Z,11.43
2023-01-28T08:10:43.992Z,10.80
2023-01-28T08:13:13.713Z,11.40
2023-01-28T08:15:41.832Z,10.60
2023-01-28T08:18:13.638Z,10.70
2023-01-28T08:20:43.455Z,12.20
2023-01-28T08:23:17.222Z,11.17
2023-01-28T08:25:46.046Z,11.80
2023-01-28T08:28:15.626Z,11.87
2023-01-28T08:30:48.180Z,11.43
2023-01-28T08:33:19.037Z,11.27
2023-01-28T08:35:49.678Z,10.60
2023-01-28T08:38:20.383Z,10.43
2023-01-28T08:40:50.982Z,10.33
2023-01-28T08:43:18.960Z,9.80
2023-01-28T08:45:46.953Z,10.43
2023-01-28T08:48:20.124Z,11.17
2023-01-28T08:50:50.770Z,11.90
2023-01-28T08:53:21.063Z,12.47
2023-01-28T08:55:49.289Z,10.73
2023-01-28T08:58:19.181Z,10.70
2023-01-28T09:00:54.598Z,10.80
2023-01-28T09:03:25.829Z,9.93
2023-01-28T09:05:53.813Z,9.80
2023-01-28T09:08:23.667Z,10.37
2023-01-28T09:10:56.686Z,10.47
2023-01-28T09:13:27.171Z,9.83
2023-01-28T09:15:55.240Z,10.27
2023-01-28T09:18:24.642Z,10.40
2023-01-28T09:20:52.689Z,10.97
2023-01-28T09:23:20.670Z,11.53
2023-01-28T09:25:48.706Z,11.47
2023-01-28T09:28:17.269Z,11.47
2023-01-28T09:30:45.348Z,11.20
2023-01-28T09:33:13.419Z,11.03
2023-01-28T09:35:45.163Z,11.13
2023-01-28T09:38:13.154Z,11.47
2023-01-28T09:40:44.439Z,11.77
2023-01-28T09:43:33.583Z,11.53
2023-01-28T09:46:07.259Z,11.10
2023-01-28T09:48:39.397Z,11.70
2023-01-28T09:51:17.425Z,11.13
2023-01-28T09:53:50.100Z,11.30
2023-01-28T09:56:26.649Z,11.23
2023-01-28T09:58:54.707Z,10.53
2023-01-28T10:01:39.584Z,10.57
2023-01-28T10:04:23.278Z,11.17
2023-01-28T10:07:06.828Z,10.83
2023-01-28T10:09:45.444Z,10.83
2023-01-28T10:12:43.651Z,11.60
2023-01-28T10:16:02.780Z,11.50
2023-01-28T10:18:39.491Z,11.57
2023-01-28T10:21:12.682Z,11.43
2023-01-28T10:23:48.371Z,11.30
2023-01-28T10:26:23.897Z,11.43
2023-01-28T10:28:57.184Z,10.80
2023-01-28T10:31:33.229Z,11.50
2023-01-28T10:34:01.764Z,10.97
2023-01-28T10:36:30.764Z,10.70
2023-01-28T10:39:00.253Z,10.80
2023-01-28T10:41:28.293Z,10.73
2023-01-28T10:43:58.760Z,12.17
2023-01-28T10:46:33.519Z,11.40
2023-01-28T10:49:08.141Z,10.50
2023-01-28T10:51:38.570Z,11.13
2023-01-28T10:54:20.991Z,12.83
2023-01-28T10:56:51.105Z,11.67
2023-01-28T10:59:28.458Z,11.27
2023-01-28T11:01:58.951Z,13.17
2023-01-28T11:04:31.819Z,13.70
2023-01-28T11:07:02.058Z,13.23
2023-01-28T11:09:33.759Z,11.90
2023-01-28T11:12:13.187Z,11.67
2023-01-28T11:14:51.008Z,11.67
2023-01-28T11:17:22.609Z,12.83
2023-01-28T11:19:50.620Z,11.83
2023-01-28T11:22:25.713Z,10.73
2023-01-28T11:24:55.734Z,12.40
2023-01-28T11:27:30.110Z,12.67
2023-01-28T11:30:03.359Z,13.13
2023-01-28T11:32:32.188Z,12.33
2023-01-28T11:35:01.296Z,11.33
2023-01-28T11:37:30.309Z,13.50
2023-01-28T11:40:21.147Z,14.93
2023-01-28T11:42:51.539Z,14.93
2023-01-28T11:45:23.726Z,15.13
2023-01-28T11:48:26.753Z,19.13
2023-01-28T11:51:01.644Z,16.87
2023-01-28T11:53:49.729Z,16.23
2023-01-28T11:56:33.601Z,16.57
2023-01-28T11:59:21.920Z,16.40
2023-01-28T12:01:58.026Z,17.00
2023-01-28T12:04:40.737Z,14.00
2023-01-28T12:07:31.263Z,12.83
2023-01-28T12:10:08.341Z,13.00
2023-01-28T12:12:53.708Z,12.30
2023-01-28T12:16:06.245Z,13.33
2023-01-28T12:18:56.285Z,11.70
2023-01-28T12:21:35.226Z,11.87
2023-01-28T12:24:16.444Z,13.20
2023-01-28T12:26:51.413Z,15.63
2023-01-28T12:29:32.139Z,12.07
2023-01-28T12:32:15.013Z,11.40
2023-01-28T12:35:06.857Z,12.30
2023-01-28T12:37:49.953Z,13.47
2023-01-28T12:40:54.520Z,13.23
2023-01-28T12:43:28.172Z,10.50
2023-01-28T12:46:02.500Z,10.90
2023-01-28T12:48:35.634Z,10.97
2023-01-28T12:51:08.540Z,11.30
2023-01-28T12:53:43.490Z,11.50
2023-01-28T12:56:16.870Z,11.83
2023-01-28T12:58:51.165Z,11.13
2023-01-28T13:01:29.572Z,11.17
2023-01-28T13:04:02.849Z,10.20
2023-01-28T13:06:34.944Z,10.53
2023-01-28T13:09:12.783Z,10.80
2023-01-28T13:11:41.745Z,11.33
2023-01-28T13:14:13.868Z,11.60
2023-01-28T13:16:43.327Z,17.93
2023-01-28T13:19:26.703Z,20.20
2023-01-28T13:21:54.912Z,16.00
2023-01-28T13:24:33.821Z,13.23
2023-01-28T13:27:13.529Z,12.67
2023-01-28T13:29:41.616Z,12.67
2023-01-28T13:32:33.383Z,12.00
2023-01-28T13:35:05.979Z,11.93
2023-01-28T13:37:38.198Z,11.53
2023-01-28T13:40:23.785Z,12.07
2023-01-28T13:43:01.277Z,11.80
2023-01-28T13:45:29.609Z,11.70
2023-01-28T13:48:03.566Z,11.40
2023-01-28T13:50:40.466Z,12.80
2023-01-28T13:53:23.570Z,13.00
2023-01-28T13:55:54.352Z,15.10
2023-01-28T13:59:19.350Z,16.10
2023-01-28T14:02:14.071Z,15.07
2023-01-28T14:05:11.644Z,15.77
2023-01-28T14:08:17.559Z,16.07
2023-01-28T14:11:01.104Z,15.83
2023-01-28T14:14:04.970Z,17.53
2023-01-28T14:16:46.295Z,19.20
2023-01-28T14:19:15.296Z,22.03
2023-01-28T14:21:44.799Z,19.80
2023-01-28T14:24:17.884Z,19.23
2023-01-28T14:26:54.725Z,19.47
2023-01-28T14:29:36.431Z,18.50
2023-01-28T14:32:12.871Z,20.10
2023-01-28T14:34:41.957Z,21.30
2023-01-28T14:37:15.424Z,22.53
2023-01-28T14:39:47.812Z,24.03
2023-01-28T14:42:23.603Z,22.33
2023-01-28T14:45:03.924Z,21.17
2023-01-28T14:47:59.061Z,20.60
2023-01-28T14:50:42.675Z,22.07
2023-01-28T14:53:44.238Z,23.33
2023-01-28T14:56:23.148Z,22.70
2023-01-28T14:58:54.722Z,23.10
2023-01-28T15:01:27.417Z,23.70
2023-01-28T15:03:55.935Z,24.27
2023-01-28T15:06:26.445Z,23.40
2023-01-28T15:09:07.017Z,25.30
2023-01-28T15:11:39.471Z,25.33
2023-01-28T15:14:19.800Z,26.40
2023-01-28T15:16:50.316Z,25.97
2023-01-28T15:19:24.027Z,26.77
2023-01-28T15:21:56.635Z,26.20
2023-01-28T15:24:24.925Z,26.03
2023-01-28T15:26:54.501Z,25.00
2023-01-28T15:29:27.799Z,25.77
2023-01-28T15:31:55.884Z,26.97
2023-01-28T15:34:30.003Z,26.93
2023-01-28T15:36:58.876Z,25.23
2023-01-28T15:39:28.640Z,25.47
2023-01-28T15:42:00.317Z,26.20
2023-01-28T15:44:31.173Z,25.07
2023-01-28T15:47:00.625Z,23.60
2023-01-28T15:49:33.994Z,24.10
2023-01-28T15:52:02.355Z,25.30
2023-01-28T15:54:31.354Z,24.90
2023-01-28T15:57:10.852Z,24.80
2023-01-28T15:59:38.969Z,23.67
2023-01-28T16:02:19.978Z,25.77
2023-01-28T16:04:59.240Z,24.43
2023-01-28T16:07:28.953Z,24.23
2023-01-28T16:09:58.557Z,25.27
2023-01-28T16:12:28.595Z,24.93
2023-01-28T16:14:58.992Z,24.43
2023-01-28T16:17:32.477Z,24.13
2023-01-28T16:20:03.288Z,25.60
2023-01-28T16:22:35.458Z,25.37
2023-01-28T16:25:04.977Z,24.53
2023-01-28T16:27:34.706Z,24.47
2023-01-28T16:30:02.702Z,25.60
2023-01-28T16:32:35.603Z,25.60
2023-01-28T16:35:06.275Z,26.23
2023-01-28T16:37:34.250Z,26.27
2023-01-28T16:40:02.625Z,25.93
2023-01-28T16:42:32.309Z,25.30
2023-01-28T16:45:01.699Z,26.17
2023-01-28T16:47:30.437Z,26.27
2023-01-28T16:49:58.715Z,26.53
2023-01-28T16:52:26.745Z,25.27
2023-01-28T16:54:54.857Z,26.23
2023-01-28T16:57:23.963Z,25.10
2023-01-28T16:59:51.968Z,25.40
2023-01-28T17:02:21.315Z,25.40
2023-01-28T17:04:49.570Z,27.60
2023-01-28T17:07:17.606Z,26.77
2023-01-28T17:09:45.595Z,27.00
2023-01-28T17:12:13.567Z,25.87
2023-01-28T17:14:41.538Z,27.80
2023-01-28T17:17:12.556Z,26.40
2023-01-28T17:19:41.874Z,28.07
2023-01-28T17:22:12.249Z,26.47
2023-01-28T17:24:40.297Z,27.83
2023-01-28T17:27:09.702Z,27.40
2023-01-28T17:29:37.654Z,28.27
2023-01-28T17:32:05.906Z,28.57
2023-01-28T17:34:33.918Z,28.87
2023-01-28T17:37:03.302Z,27.80
2023-01-28T17:39:31.259Z,28.23
2023-01-28T17:41:59.218Z,27.77
2023-01-28T17:44:27.222Z,29.47
2023-01-28T17:46:55.185Z,27.97
2023-01-28T17:49:23.363Z,27.70
2023-01-28T17:51:53.019Z,30.73
2023-01-28T17:54:24.333Z,28.63
2023-01-28T17:56:52.562Z,28.83
2023-01-28T17:59:21.678Z,29.30
2023-01-28T18:01:50.775Z,29.37
2023-01-28T18:04:19.056Z,30.07
2023-01-28T18:06:49.110Z,31.00
2023-01-28T18:09:17.143Z,32.90
2023-01-28T18:11:46.608Z,31.60
2023-01-28T18:14:14.944Z,30.63
2023-01-28T18:16:42.933Z,31.10
2023-01-28T18:19:10.929Z,31.13
2023-01-28T18:21:52.693Z,30.90
2023-01-28T18:24:21.619Z,27.07
2023-01-28T18:26:51.281Z,27.37
2023-01-28T18:29:20.821Z,27.83
2023-01-28T18:31:49.518Z,27.63
2023-01-28T18:34:17.763Z,26.33
2023-01-28T18:36:47.625Z,26.30
2023-01-28T18:39:16.077Z,25.70
2023-01-28T18:41:44.099Z,24.30
2023-01-28T18:44:14.971Z,24.37
2023-01-28T18:46:43.423Z,24.70
2023-01-28T18:49:11.899Z,24.67
2023-01-28T18:51:39.870Z,24.90
2023-01-28T18:54:12.032Z,23.03
2023-01-28T18:56:41.533Z,24.57
2023-01-28T18:59:13.974Z,23.93
2023-01-28T19:01:43.517Z,24.53
2023-01-28T19:04:11.660Z,24.30
2023-01-28T19:06:39.777Z,24.30
2023-01-28T19:09:09.574Z,24.57
2023-01-28T19:11:40.625Z,23.53
2023-01-28T19:14:08.868Z,23.30
2023-01-28T19:16:38.599Z,23.90
2023-01-28T19:19:07.287Z,23.80
2023-01-28T19:21:35.596Z,24.13
2023-01-28T19:24:06.553Z,23.97
2023-01-28T19:26:34.796Z,23.07
2023-01-28T19:29:02.965Z,22.00
2023-01-28T19:31:31.036Z,24.13
2023-01-28T19:34:01.261Z,24.90
2023-01-28T19:36:31.126Z,23.43
2023-01-28T19:38:59.998Z,24.73
2023-01-28T19:41:28.417Z,21.83
2023-01-28T19:43:56.850Z,23.33
2023-01-28T19:46:25.375Z,22.03
2023-01-28T19:48:53.500Z,22.20
2023-01-28T19:51:26.261Z,20.63
2023-01-28T19:53:57.378Z,20.90
2023-01-28T19:56:31.206Z,20.53
2023-01-28T19:58:59.151Z,20.90
2023-01-28T20:01:30.866Z,18.57
2023-01-28T20:04:00.733Z,17.53
2023-01-28T20:06:31.468Z,18.17
2023-01-28T20:09:01.357Z,17.13
2023-01-28T20:11:29.601Z,17.07
2023-01-28T20:13:57.901Z,17.27
2023-01-28T20:16:29.151Z,17.80
2023-01-28T20:18:59.088Z,15.77
2023-01-28T20:21:27.860Z,15.33
2023-01-28T20:23:59.479Z,14.77
2023-01-28T20:26:31.236Z,15.67
2023-01-28T20:29:01.812Z,14.47
2023-01-28T20:31:31.334Z,15.50
2023-01-28T20:33:59.595Z,13.93
2023-01-28T20:36:27.946Z,14.53
2023-01-28T20:38:57.335Z,14.63
2023-01-28T20:41:27.089Z,14.77
2023-01-28T20:43:56.085Z,13.93
2023-01-28T20:46:26.216Z,14.70
2023-01-28T20:48:55.419Z,14.83
2023-01-28T20:51:27.519Z,15.37
2023-01-28T20:53:58.074Z,16.27
2023-01-28T20:56:27.710Z,14.83
2023-01-28T20:58:57.283Z,14.50
2023-01-28T21:01:27.598Z,14.57
2023-01-28T21:03:56.766Z,15.13
2023-01-28T21:06:25.426Z,14.10
2023-01-28T21:08:54.009Z,14.80
2023-01-28T21:11:24.310Z,12.97
2023-01-28T21:13:52.376Z,13.00
2023-01-28T21:16:22.014Z,13.43
2023-01-28T21:18:50.641Z,13.60
2023-01-28T21:21:21.545Z,12.73
2023-01-28T21:23:49.857Z,13.27
2023-01-28T21:26:18.381Z,13.23
2023-01-28T21:28:47.789Z,13.17
2023-01-28T21:31:17.738Z,12.67
2023-01-28T21:33:49.771Z,11.83
2023-01-28T21:36:18.680Z,12.83
2023-01-28T21:38:52.500Z,13.33
2023-01-28T21:41:20.535Z,12.63
2023-01-28T21:43:53.497Z,12.87
2023-01-28T21:46:21.772Z,13.90
2023-01-28T21:48:50.234Z,14.83
2023-01-28T21:51:37.812Z,14.70
2023-01-28T21:54:07.309Z,14.90
2023-01-28T21:56:35.308Z,15.90
2023-01-28T21:59:22.390Z,15.20
2023-01-28T22:01:50.745Z,16.47
2023-01-28T22:04:18.743Z,17.50
2023-01-28T22:06:46.849Z,17.00
2023-01-28T22:09:14.863Z,17.10
2023-01-28T22:11:44.339Z,18.00
2023-01-28T22:14:14.234Z,18.17
2023-01-28T22:16:42.298Z,17.70
2023-01-28T22:19:10.921Z,17.33
2023-01-28T22:21:41.842Z,18.13
2023-01-28T22:24:11.432Z,15.47
2023-01-28T22:26:41.318Z,16.17
2023-01-28T22:29:10.174Z,16.77
2023-01-28T22:31:40.445Z,16.70
2023-01-28T22:34:09.083Z,16.50
2023-01-28T22:36:37.324Z,16.03
2023-01-28T22:39:08.169Z,15.53
2023-01-28T22:41:36.283Z,15.40
2023-01-28T22:44:06.272Z,15.07
2023-01-28T22:46:35.487Z,13.87
2023-01-28T22:49:05.283Z,14.53
2023-01-28T22:51:35.644Z,14.60
2023-01-28T22:54:04.024Z,14.47
2023-01-28T22:56:32.382Z,14.67
2023-01-28T22:59:01.846Z,14.20
2023-01-28T23:01:30.509Z,13.77
2023-01-28T23:03:58.549Z,14.23
2023-01-28T23:06:28.946Z,12.90
2023-01-28T23:08:57.318Z,12.57
2023-01-28T23:11:27.528Z,12.00
2023-01-28T23:14:14.801Z,11.57
2023-01-28T23:17:00.419Z,10.13
2023-01-28T23:19:45.669Z,9.73
2023-01-28T23:22:36.300Z,8.90
2023-01-28T23:25:04.411Z,8.10
2023-01-28T23:27:32.376Z,8.13
2023-01-28T23:30:00.356Z,8.10
2023-01-28T23:32:28.787Z,8.03
2023-01-28T23:34:57.259Z,7.10
2023-01-28T23:37:26.622Z,7.00
2023-01-28T23:39:54.817Z,5.80
2023-01-28T23:42:23.614Z,5.90
2023-01-28T23:44:51.667Z,6.07
2023-01-28T23:47:20.300Z,5.63
2023-01-28T23:49:51.444Z,5.90
2023-01-28T23:52:19.479Z,5.93
2023-01-28T23:54:51.580Z,6.23
2023-01-28T23:57:19.878Z,5.83
2023-01-28T23:59:47.830Z,6.43
